createdAt,value
2019-02-06T00:01:39.779Z,1.30
2019-02-06T00:04:15.300Z,1.30
2019-02-06T00:06:47.459Z,1.30
2019-02-06T00:20:53.553Z,1.30
2019-02-06T00:23:26.258Z,1.30
2019-02-06T00:25:58.785Z,1.30
2019-02-06T00:28:31.510Z,1.20
2019-02-06T00:31:05.307Z,1.20
2019-02-06T00:33:38.229Z,1.10
2019-02-06T00:36:12.476Z,1.20
2019-02-06T00:38:45.180Z,1.20
2019-02-06T00:41:17.760Z,1.20
2019-02-06T00:43:50.309Z,1.20
2019-02-06T00:46:23.046Z,1.20
2019-02-06T00:48:56.045Z,1.20
2019-02-06T00:51:28.566Z,1.10
2019-02-06T00:54:01.089Z,1.10
2019-02-06T00:56:33.580Z,1.10
2019-02-06T00:59:07.644Z,1.10
2019-02-06T01:01:40.403Z,1.10
2019-02-06T01:04:13.355Z,1.00
2019-02-06T01:06:45.912Z,0.90
2019-02-06T01:09:18.665Z,0.80
2019-02-06T01:11:51.580Z,0.80
2019-02-06T01:14:24.623Z,0.80
2019-02-06T01:16:57.488Z,0.80
2019-02-06T01:19:29.972Z,0.80
2019-02-06T01:22:13.590Z,0.90
2019-02-06T01:24:46.204Z,0.90
2019-02-06T01:27:18.874Z,0.90
2019-02-06T01:29:51.526Z,1.00
2019-02-06T01:32:24.309Z,1.00
2019-02-06T01:34:56.953Z,1.00
2019-02-06T01:37:29.577Z,0.90
2019-02-06T01:40:13.630Z,0.80
2019-02-06T01:42:57.092Z,0.70
2019-02-06T01:45:30.000Z,0.70
2019-02-06T01:48:02.883Z,0.60
2019-02-06T01:50:35.184Z,0.60
2019-02-06T01:53:08.412Z,0.70
2019-02-06T01:55:40.977Z,0.70
2019-02-06T01:58:13.707Z,0.60
2019-02-06T02:00:46.252Z,0.60
2019-02-06T02:03:18.854Z,0.40
2019-02-06T02:06:01.830Z,0.40
2019-02-06T02:08:26.413Z,0.30
2019-02-06T02:10:58.972Z,0.30
2019-02-06T02:13:31.588Z,0.20
2019-02-06T02:16:04.155Z,0.30
2019-02-06T02:18:37.062Z,0.40
2019-02-06T02:21:09.764Z,0.40
2019-02-06T02:23:42.637Z,0.50
2019-02-06T02:26:15.452Z,0.40
2019-02-06T02:28:49.163Z,0.40
2019-02-06T02:31:21.720Z,0.40
2019-02-06T02:33:54.041Z,0.40
2019-02-06T02:36:27.278Z,0.30
2019-02-06T02:38:59.779Z,0.20
2019-02-06T02:41:32.333Z,0.20
2019-02-06T02:44:05.796Z,0.20
2019-02-06T02:46:38.605Z,0.20
2019-02-06T02:49:11.673Z,0.20
2019-02-06T02:51:44.596Z,0.10
2019-02-06T02:54:17.342Z,0.20
2019-02-06T02:56:50.113Z,0.10
2019-02-06T02:59:23.098Z,0.10
2019-02-06T03:02:02.925Z,0.00
2019-02-06T03:04:39.846Z,0.00
2019-02-06T03:07:12.215Z,0.00
2019-02-06T03:09:44.783Z,0.00
2019-02-06T03:12:17.867Z,0.00
2019-02-06T03:14:50.392Z,0.00
2019-02-06T03:17:22.986Z,0.00
2019-02-06T03:19:55.536Z,0.00
2019-02-06T03:22:28.214Z,-0.10
2019-02-06T03:25:01.051Z,-0.10
2019-02-06T03:27:33.440Z,-0.10
2019-02-06T03:30:07.780Z,-0.20
2019-02-06T03:32:41.417Z,-0.20
2019-02-06T03:35:14.217Z,-0.20
2019-02-06T03:37:46.995Z,-0.20
2019-02-06T03:40:20.149Z,-0.20
2019-02-06T03:42:53.062Z,-0.20
2019-02-06T03:45:25.814Z,-0.20
2019-02-06T03:47:58.506Z,-0.20
2019-02-06T03:50:31.001Z,-0.20
2019-02-06T03:53:03.583Z,-0.20
2019-02-06T03:55:36.082Z,-0.20
2019-02-06T03:58:08.830Z,-0.20
2019-02-06T04:00:41.496Z,-0.20
2019-02-06T04:03:14.147Z,-0.20
2019-02-06T04:05:46.711Z,-0.10
2019-02-06T04:08:19.023Z,-0.10
2019-02-06T04:10:51.633Z,-0.10
2019-02-06T04:13:24.365Z,-0.10
2019-02-06T04:15:56.848Z,-0.10
2019-02-06T04:18:29.525Z,-0.20
2019-02-06T04:21:02.227Z,-0.10
2019-02-06T04:23:34.830Z,-0.10
2019-02-06T04:26:07.753Z,-0.10
2019-02-06T04:28:40.359Z,-0.10
2019-02-06T04:31:12.878Z,-0.10
2019-02-06T04:33:45.697Z,-0.10
2019-02-06T04:36:18.434Z,-0.10
2019-02-06T04:38:51.069Z,-0.20
2019-02-06T04:41:23.425Z,-0.20
2019-02-06T04:43:56.027Z,-0.10
2019-02-06T04:46:28.489Z,0.00
2019-02-06T04:49:00.905Z,0.00
2019-02-06T04:51:33.435Z,-0.10
2019-02-06T04:54:06.165Z,-0.10
2019-02-06T04:56:38.909Z,-0.20
2019-02-06T04:59:11.800Z,-0.20
2019-02-06T05:01:44.321Z,-0.20
2019-02-06T05:04:16.745Z,-0.20
2019-02-06T05:06:49.943Z,-0.30
2019-02-06T05:09:22.962Z,-0.30
2019-02-06T05:11:55.729Z,-0.40
2019-02-06T05:14:28.252Z,-0.40
2019-02-06T05:17:01.033Z,-0.40
2019-02-06T05:19:33.735Z,-0.40
2019-02-06T05:22:07.282Z,-0.40
2019-02-06T05:24:40.073Z,-0.50
2019-02-06T05:27:12.726Z,-0.50
2019-02-06T05:29:45.427Z,-0.60
2019-02-06T05:32:18.038Z,-0.70
2019-02-06T05:34:50.620Z,-0.70
2019-02-06T05:37:31.762Z,-0.70
2019-02-06T05:39:58.119Z,-0.70
2019-02-06T05:42:30.678Z,-0.80
2019-02-06T05:45:03.680Z,-0.70
2019-02-06T05:47:36.218Z,-0.80
2019-02-06T05:50:09.945Z,-0.80
2019-02-06T05:52:43.004Z,-0.80
2019-02-06T05:55:16.493Z,-0.90
2019-02-06T05:57:50.126Z,-1.00
2019-02-06T06:00:39.179Z,-1.00
2019-02-06T06:03:12.008Z,-0.90
2019-02-06T06:05:45.068Z,-0.90
2019-02-06T06:08:17.717Z,-1.00
2019-02-06T06:10:50.526Z,-0.90
2019-02-06T06:13:23.396Z,-0.90
2019-02-06T06:15:56.074Z,-0.90
2019-02-06T06:18:28.799Z,-0.90
2019-02-06T06:21:01.125Z,-0.80
2019-02-06T06:23:33.729Z,-0.70
2019-02-06T06:26:06.452Z,-0.60
2019-02-06T06:28:39.004Z,-0.40
2019-02-06T06:31:12.015Z,-0.20
2019-02-06T06:33:44.813Z,0.00
2019-02-06T06:36:17.448Z,0.20
2019-02-06T06:38:51.740Z,0.30
2019-02-06T06:41:24.320Z,0.60
2019-02-06T06:43:57.714Z,0.90
2019-02-06T06:46:30.251Z,1.10
2019-02-06T06:49:02.784Z,1.40
2019-02-06T06:51:35.408Z,1.70
2019-02-06T06:54:08.160Z,2.10
2019-02-06T06:56:41.232Z,2.30
2019-02-06T06:59:13.887Z,2.30
2019-02-06T07:01:46.837Z,2.50
2019-02-06T07:04:19.785Z,2.70
2019-02-06T07:06:52.546Z,3.00
2019-02-06T07:09:25.268Z,3.20
2019-02-06T07:11:58.141Z,3.40
2019-02-06T07:14:30.888Z,3.70
2019-02-06T07:17:03.653Z,4.10
2019-02-06T07:19:36.644Z,4.40
2019-02-06T07:22:09.562Z,4.70
2019-02-06T07:24:42.465Z,5.10
2019-02-06T07:27:15.176Z,5.40
2019-02-06T07:29:47.992Z,5.40
2019-02-06T07:32:20.519Z,5.40
2019-02-06T07:34:52.928Z,5.50
2019-02-06T07:37:25.812Z,6.10
2019-02-06T07:39:58.359Z,6.40
2019-02-06T07:42:31.044Z,6.70
2019-02-06T07:45:03.773Z,6.90
2019-02-06T07:47:36.330Z,6.80
2019-02-06T07:50:12.897Z,7.20
2019-02-06T07:52:46.008Z,7.50
2019-02-06T07:55:19.075Z,7.90
2019-02-06T07:57:51.591Z,8.30
2019-02-06T08:00:24.082Z,8.70
2019-02-06T08:02:57.248Z,9.00
2019-02-06T08:05:30.464Z,9.30
2019-02-06T08:08:03.242Z,9.10
2019-02-06T08:10:36.588Z,9.80
2019-02-06T08:13:09.356Z,10.10
2019-02-06T08:15:42.158Z,10.70
2019-02-06T08:18:14.934Z,10.90
2019-02-06T08:20:47.509Z,11.40
2019-02-06T08:23:20.070Z,11.70
2019-02-06T08:25:52.568Z,12.20
2019-02-06T08:28:25.111Z,12.40
2019-02-06T08:30:57.910Z,12.70
2019-02-06T08:33:30.566Z,12.80
2019-02-06T08:36:03.032Z,13.00
2019-02-06T08:38:47.082Z,13.00
2019-02-06T08:41:09.742Z,12.90
2019-02-06T08:43:42.306Z,13.10
2019-02-06T08:46:15.062Z,13.20
2019-02-06T08:48:47.651Z,13.30
2019-02-06T08:51:20.227Z,14.00
2019-02-06T08:53:53.043Z,14.10
2019-02-06T08:56:25.729Z,14.20
2019-02-06T08:58:59.189Z,13.60
2019-02-06T09:01:31.896Z,13.80
2019-02-06T09:04:04.562Z,14.40
2019-02-06T09:06:38.773Z,15.30
2019-02-06T09:09:14.127Z,16.20
2019-02-06T09:11:46.691Z,16.10
2019-02-06T09:14:19.593Z,15.90
2019-02-06T09:16:52.292Z,15.60
2019-02-06T09:19:24.823Z,15.40
2019-02-06T09:21:57.549Z,15.50
2019-02-06T09:24:30.098Z,15.50
2019-02-06T09:27:03.232Z,15.30
2019-02-06T09:29:36.760Z,15.00
2019-02-06T09:32:09.564Z,15.40
2019-02-06T09:34:42.149Z,15.70
2019-02-06T09:37:15.068Z,15.60
2019-02-06T09:39:47.685Z,16.10
2019-02-06T09:42:20.763Z,16.70
2019-02-06T09:44:53.229Z,16.60
2019-02-06T09:47:25.697Z,15.90
2019-02-06T09:49:58.004Z,15.70
2019-02-06T09:52:30.568Z,16.00
2019-02-06T09:55:03.547Z,15.90
2019-02-06T09:57:36.368Z,15.30
2019-02-06T10:00:15.074Z,15.00
2019-02-06T10:02:47.787Z,15.10
2019-02-06T10:05:20.616Z,14.90
2019-02-06T10:07:53.161Z,14.70
2019-02-06T10:10:26.814Z,14.40
2019-02-06T10:12:59.368Z,14.20
2019-02-06T10:15:34.957Z,14.10
2019-02-06T10:18:08.709Z,14.20
2019-02-06T10:20:45.499Z,14.40
2019-02-06T10:23:18.336Z,14.50
2019-02-06T10:25:53.626Z,14.80
2019-02-06T10:28:25.196Z,14.40
2019-02-06T10:30:57.848Z,14.60
2019-02-06T10:33:30.532Z,14.50
2019-02-06T10:36:03.998Z,14.50
2019-02-06T10:38:36.542Z,14.70
2019-02-06T10:41:09.258Z,14.90
2019-02-06T10:43:41.693Z,15.10
2019-02-06T10:46:14.292Z,15.40
2019-02-06T10:48:46.855Z,15.30
2019-02-06T10:51:19.712Z,15.10
2019-02-06T10:53:52.321Z,15.30
2019-02-06T10:56:33.157Z,15.20
2019-02-06T10:59:05.890Z,15.40
2019-02-06T11:01:38.642Z,15.40
2019-02-06T11:04:11.018Z,15.50
2019-02-06T11:06:43.682Z,15.70
2019-02-06T11:09:16.391Z,15.40
2019-02-06T11:11:48.866Z,15.20
2019-02-06T11:14:21.261Z,14.90
2019-02-06T11:16:54.183Z,14.50
2019-02-06T11:19:26.699Z,14.90
2019-02-06T11:21:59.533Z,14.50
2019-02-06T11:24:31.976Z,14.10
2019-02-06T11:27:04.799Z,14.20
2019-02-06T11:29:37.200Z,13.90
2019-02-06T11:32:09.998Z,14.00
2019-02-06T11:34:42.644Z,14.30
2019-02-06T11:37:15.477Z,14.70
2019-02-06T11:39:57.499Z,14.20
2019-02-06T11:42:22.797Z,13.90
2019-02-06T11:44:55.383Z,13.60
2019-02-06T11:47:27.839Z,13.70
2019-02-06T11:50:01.887Z,13.40
2019-02-06T11:52:34.485Z,13.50
2019-02-06T11:55:11.163Z,13.70
2019-02-06T11:57:43.913Z,13.50
2019-02-06T12:00:24.738Z,13.30
2019-02-06T12:02:58.529Z,13.30
2019-02-06T12:05:31.129Z,13.20
2019-02-06T12:08:03.586Z,13.40
2019-02-06T12:10:36.434Z,13.50
2019-02-06T12:13:09.575Z,13.50
2019-02-06T12:15:42.251Z,13.60
2019-02-06T12:18:15.944Z,13.30
2019-02-06T12:20:49.314Z,12.90
2019-02-06T12:23:31.877Z,12.90
2019-02-06T12:25:56.666Z,12.60
2019-02-06T12:28:29.313Z,12.50
2019-02-06T12:31:01.692Z,12.50
2019-02-06T12:33:36.657Z,12.30
2019-02-06T12:36:08.975Z,12.10
2019-02-06T12:38:52.727Z,12.00
2019-02-06T12:41:16.064Z,11.40
2019-02-06T12:43:48.623Z,11.30
2019-02-06T12:46:21.228Z,11.20
2019-02-06T12:48:54.144Z,11.30
2019-02-06T12:51:26.665Z,11.20
2019-02-06T12:54:00.871Z,11.50
2019-02-06T12:56:33.410Z,11.40
2019-02-06T12:59:06.130Z,11.10
2019-02-06T13:01:39.078Z,10.80
2019-02-06T13:04:11.573Z,10.80
2019-02-06T13:06:44.280Z,10.70
2019-02-06T13:09:16.697Z,10.60
2019-02-06T13:11:49.396Z,10.30
2019-02-06T13:14:21.982Z,9.90
2019-02-06T13:16:54.590Z,9.60
2019-02-06T13:19:27.808Z,9.20
2019-02-06T13:22:00.635Z,9.30
2019-02-06T13:24:32.988Z,9.10
2019-02-06T13:27:06.138Z,9.00
2019-02-06T13:29:39.659Z,8.90
2019-02-06T13:32:12.072Z,8.60
2019-02-06T13:34:45.046Z,8.50
2019-02-06T13:37:17.607Z,8.50
2019-02-06T13:39:50.573Z,8.50
2019-02-06T13:42:23.285Z,8.40
2019-02-06T13:44:56.645Z,8.30
2019-02-06T13:47:29.441Z,8.10
2019-02-06T13:50:02.373Z,8.30
2019-02-06T13:52:34.843Z,8.30
2019-02-06T13:55:09.688Z,8.30
2019-02-06T13:57:42.305Z,8.20
2019-02-06T14:00:22.288Z,7.90
2019-02-06T14:02:55.132Z,7.80
2019-02-06T14:05:30.717Z,7.70
2019-02-06T14:08:10.395Z,7.60
2019-02-06T14:10:43.257Z,7.50
2019-02-06T14:13:15.982Z,7.50
2019-02-06T14:15:50.456Z,7.50
2019-02-06T14:18:23.012Z,7.30
2019-02-06T14:20:56.320Z,7.20
2019-02-06T14:24:04.397Z,7.30
2019-02-06T14:27:39.273Z,7.40
2019-02-06T14:31:32.420Z,7.30
2019-02-06T14:34:31.046Z,7.20
2019-02-06T14:37:53.476Z,7.30
2019-02-06T14:41:15.900Z,7.10
2019-02-06T14:45:11.768Z,7.00
2019-02-06T14:48:38.265Z,7.10
2019-02-06T14:52:14.817Z,7.20
2019-02-06T14:56:09.339Z,7.00
2019-02-06T14:59:44.152Z,6.80
2019-02-06T15:02:53.214Z,6.50
2019-02-06T15:06:18.797Z,6.60
2019-02-06T15:09:54.391Z,6.50
2019-02-06T15:13:47.523Z,6.60
2019-02-06T15:17:37.865Z,6.50
2019-02-06T15:20:29.330Z,6.40
2019-02-06T15:23:49.310Z,6.30
2019-02-06T15:27:05.209Z,6.20
2019-02-06T15:30:08.683Z,6.20
2019-02-06T15:33:34.583Z,6.10
2019-02-06T15:36:33.978Z,6.00
2019-02-06T15:39:50.166Z,5.90
2019-02-06T15:43:22.963Z,5.70
2019-02-06T15:46:38.593Z,5.60
2019-02-06T15:49:38.174Z,5.50
2019-02-06T15:52:36.625Z,5.50
2019-02-06T15:56:07.284Z,5.40
2019-02-06T15:59:34.439Z,5.30
2019-02-06T16:03:11.535Z,5.20
2019-02-06T16:06:41.773Z,5.20
2019-02-06T16:10:19.007Z,5.20
2019-02-06T16:13:52.311Z,5.20
2019-02-06T16:17:19.373Z,5.20
2019-02-06T16:20:37.454Z,5.30
2019-02-06T16:23:35.046Z,5.20
2019-02-06T16:27:09.972Z,4.90
2019-02-06T16:30:53.378Z,4.90
2019-02-06T16:34:25.853Z,4.80
2019-02-06T16:37:39.068Z,4.70
2019-02-06T16:41:07.803Z,4.60
2019-02-06T16:44:32.169Z,4.60
2019-02-06T16:47:58.513Z,4.40
2019-02-06T16:51:08.433Z,4.40
2019-02-06T16:54:41.246Z,4.30
2019-02-06T16:58:01.755Z,4.20
2019-02-06T17:01:19.157Z,4.10
2019-02-06T17:04:29.466Z,4.10
2019-02-06T17:08:21.142Z,4.00
2019-02-06T17:11:20.451Z,4.00
2019-02-06T17:14:36.810Z,4.00
2019-02-06T17:18:05.630Z,3.90
2019-02-06T17:21:22.850Z,3.90
2019-02-06T17:25:17.332Z,3.90
2019-02-06T17:28:40.207Z,3.90
2019-02-06T17:32:09.324Z,3.90
2019-02-06T17:35:28.754Z,3.90
2019-02-06T17:39:00.809Z,3.80
2019-02-06T17:41:47.684Z,3.70
2019-02-06T17:45:30.370Z,3.60
2019-02-06T17:48:50.887Z,3.70
2019-02-06T17:52:11.267Z,3.60
2019-02-06T17:55:25.318Z,3.50
2019-02-06T17:58:10.796Z,3.80
2019-02-06T18:00:54.875Z,4.00
2019-02-06T18:03:28.520Z,3.80
2019-02-06T18:06:01.187Z,3.60
2019-02-06T18:08:33.699Z,3.50
2019-02-06T18:11:06.625Z,3.50
2019-02-06T18:13:39.268Z,3.30
2019-02-06T18:16:21.077Z,3.20
2019-02-06T18:18:46.492Z,3.10
2019-02-06T18:21:18.917Z,3.10
2019-02-06T18:23:51.438Z,3.20
2019-02-06T18:26:24.507Z,3.30
2019-02-06T18:28:57.744Z,3.30
2019-02-06T18:31:30.413Z,3.20
2019-02-06T18:34:07.104Z,3.10
2019-02-06T18:36:39.833Z,3.10
2019-02-06T18:39:18.796Z,3.10
2019-02-06T18:41:52.023Z,3.10
2019-02-06T18:44:25.225Z,3.20
2019-02-06T18:46:58.795Z,3.30
2019-02-06T18:49:31.309Z,3.20
2019-02-06T18:52:04.463Z,3.20
2019-02-06T18:54:36.934Z,3.10
2019-02-06T18:57:10.257Z,3.10
2019-02-06T18:59:42.807Z,3.10
2019-02-06T19:02:17.828Z,2.90
2019-02-06T19:04:50.413Z,2.80
2019-02-06T19:07:23.734Z,2.80
2019-02-06T19:09:56.536Z,2.70
2019-02-06T19:12:29.311Z,2.70
2019-02-06T19:15:02.052Z,2.70
2019-02-06T19:17:35.202Z,2.70
2019-02-06T19:20:10.541Z,2.60
2019-02-06T19:22:43.312Z,2.50
2019-02-06T19:25:16.568Z,2.60
2019-02-06T19:27:49.520Z,2.50
2019-02-06T19:30:29.853Z,2.50
2019-02-06T19:33:02.657Z,2.30
2019-02-06T19:35:35.601Z,2.10
2019-02-06T19:38:22.120Z,2.00
2019-02-06T19:40:54.795Z,2.00
2019-02-06T19:43:27.941Z,2.20
2019-02-06T19:46:00.855Z,2.10
2019-02-06T19:48:33.541Z,2.00
2019-02-06T19:51:06.426Z,2.00
2019-02-06T19:53:39.333Z,1.90
2019-02-06T19:56:12.315Z,2.00
2019-02-06T19:58:44.908Z,2.00
2019-02-06T20:01:17.715Z,2.00
2019-02-06T20:03:52.607Z,1.80
2019-02-06T20:06:31.683Z,1.70
2019-02-06T20:09:10.403Z,1.60
2019-02-06T20:11:43.626Z,1.50
2019-02-06T20:14:16.346Z,1.50
2019-02-06T20:17:08.309Z,1.60
2019-02-06T20:19:41.041Z,1.60
2019-02-06T20:22:13.515Z,1.60
2019-02-06T20:24:57.662Z,1.60
2019-02-06T20:27:31.765Z,1.50
2019-02-06T20:30:05.547Z,1.50
2019-02-06T20:32:40.014Z,1.40
2019-02-06T20:35:14.607Z,1.50
2019-02-06T20:37:47.244Z,1.80
2019-02-06T20:40:23.909Z,1.60
2019-02-06T20:42:56.652Z,1.50
2019-02-06T20:45:29.509Z,1.40
2019-02-06T20:48:02.196Z,1.30
2019-02-06T20:50:35.976Z,1.20
2019-02-06T20:53:09.054Z,1.10
2019-02-06T20:55:42.116Z,1.00
2019-02-06T20:58:15.093Z,1.00
2019-02-06T21:00:47.857Z,1.10
2019-02-06T21:03:20.623Z,1.10
2019-02-06T21:05:53.421Z,1.00
2019-02-06T21:08:26.372Z,1.00
2019-02-06T21:11:01.738Z,1.00
2019-02-06T21:13:34.437Z,1.00
2019-02-06T21:16:07.170Z,1.00
2019-02-06T21:18:39.707Z,1.00
2019-02-06T21:21:12.534Z,0.90
2019-02-06T21:23:45.434Z,0.80
2019-02-06T21:26:18.158Z,0.80
2019-02-06T21:28:51.251Z,0.80
2019-02-06T21:31:23.843Z,0.70
2019-02-06T21:33:56.673Z,0.70
2019-02-06T21:36:29.547Z,0.70
2019-02-06T21:39:02.472Z,0.70
2019-02-06T21:41:35.102Z,0.70
2019-02-06T21:44:08.075Z,0.70
2019-02-06T21:46:40.925Z,0.60
2019-02-06T21:49:13.537Z,0.80
2019-02-06T21:51:46.409Z,1.40
2019-02-06T21:54:19.954Z,1.40
2019-02-06T21:56:52.443Z,1.10
2019-02-06T21:59:25.241Z,0.90
2019-02-06T22:01:58.179Z,0.80
2019-02-06T22:04:31.058Z,0.70
2019-02-06T22:07:03.755Z,0.50
2019-02-06T22:09:36.463Z,0.50
2019-02-06T22:12:08.946Z,0.80
2019-02-06T22:14:41.581Z,1.20
2019-02-06T22:17:15.784Z,0.90
2019-02-06T22:19:48.693Z,0.70
2019-02-06T22:22:21.522Z,0.60
2019-02-06T22:24:54.180Z,0.40
2019-02-06T22:27:26.920Z,0.40
2019-02-06T22:29:59.726Z,0.30
2019-02-06T22:32:33.214Z,0.20
2019-02-06T22:35:06.730Z,0.10
2019-02-06T22:37:39.318Z,0.10
2019-02-06T22:40:15.704Z,0.10
2019-02-06T22:42:48.114Z,0.00
2019-02-06T22:45:23.325Z,-0.10
2019-02-06T22:47:56.136Z,-0.20
2019-02-06T22:50:29.797Z,-0.20
2019-02-06T22:53:02.414Z,-0.10
2019-02-06T22:55:34.968Z,-0.20
2019-02-06T22:58:07.669Z,-0.10
2019-02-06T23:01:38.625Z,-0.10
2019-02-06T23:04:11.205Z,-0.10
2019-02-06T23:06:43.693Z,-0.20
2019-02-06T23:09:16.185Z,-0.10
2019-02-06T23:11:49.050Z,-0.10
2019-02-06T23:14:32.529Z,-0.20
2019-02-06T23:17:05.765Z,-0.20
2019-02-06T23:19:38.334Z,-0.20
2019-02-06T23:22:11.413Z,-0.30
2019-02-06T23:24:44.204Z,-0.30
2019-02-06T23:27:16.817Z,-0.40
2019-02-06T23:29:49.304Z,-0.50
2019-02-06T23:32:21.540Z,-0.60
2019-02-06T23:34:54.063Z,-0.60
2019-02-06T23:37:27.204Z,-0.50
2019-02-06T23:40:00.313Z,-0.60
2019-02-06T23:42:32.907Z,-0.70
2019-02-06T23:45:06.343Z,-0.70
2019-02-06T23:47:38.951Z,-0.70
2019-02-06T23:50:11.529Z,-0.70
2019-02-06T23:52:44.516Z,-0.80
2019-02-06T23:55:17.468Z,-0.70
2019-02-06T23:57:51.158Z,-0.60
